Time;durP1;ratioP1;P1;durP2;ratioP2;P2;SDS_P1;SDS_P2;PMS_P1;PMS_P2;Temp;Humidity;BMP_temperature;BMP_pressure;BME280_temperature;BME280_humidity;BME280_pressure;Samples;Min_cycle;Max_cycle;Signal;HPM_P1;HPM_P2
2021/12/06 00:01:11;;;;;;;10.75;8.40;;;;;;;0.15;100.00;95015.53;5091246;28;25005;-72
2021/12/06 00:03:43;;;;;;;9.03;8.13;;;;;;;0.10;100.00;95012.28;5091226;28;24425;-73
2021/12/06 00:06:11;;;;;;;7.80;7.00;;;;;;;0.17;100.00;95021.38;5090836;28;24433;-72
2021/12/06 00:08:37;;;;;;;8.52;7.18;;;;;;;0.23;100.00;95021.19;5090867;28;24441;-72
2021/12/06 00:11:08;;;;;;;8.68;7.20;;;;;;;0.31;100.00;95015.81;5091088;28;24421;-72
2021/12/06 00:13:37;;;;;;;8.38;6.20;;;;;;;0.25;100.00;95021.13;5090680;28;24512;-72
2021/12/06 00:16:06;;;;;;;9.90;5.47;;;;;;;0.18;100.00;95017.94;5090789;28;24833;-72
2021/12/06 00:18:33;;;;;;;6.50;4.87;;;;;;;0.17;100.00;95021.38;5090932;28;24427;-72
2021/12/06 00:21:00;;;;;;;7.25;5.65;;;;;;;0.18;100.00;95024.75;5090707;28;24951;-72
2021/12/06 00:23:27;;;;;;;5.10;4.60;;;;;;;0.22;100.00;95021.22;5091059;28;24421;-70
2021/12/06 00:25:54;;;;;;;9.07;4.78;;;;;;;0.28;100.00;95035.47;5090672;28;24406;-70
2021/12/06 00:28:20;;;;;;;10.35;6.45;;;;;;;0.20;100.00;95028.09;5090831;28;24461;-70
2021/12/06 00:30:48;;;;;;;11.60;7.57;;;;;;;0.11;100.00;95033.50;5090621;28;24425;-70
2021/12/06 00:33:15;;;;;;;13.38;7.35;;;;;;;0.14;100.00;95029.13;5090660;28;24966;-70
2021/12/06 00:35:41;;;;;;;12.80;7.93;;;;;;;0.39;100.00;95035.94;5090246;28;24422;-70
2021/12/06 00:38:08;;;;;;;9.40;7.75;;;;;;;0.66;100.00;95029.03;5090816;28;24422;-70
2021/12/06 00:40:37;;;;;;;10.33;9.03;;;;;;;0.49;100.00;95039.81;5090510;28;24418;-72
2021/12/06 00:43:04;;;;;;;9.85;8.65;;;;;;;0.44;100.00;95031.50;5090613;28;24418;-73
2021/12/06 00:45:31;;;;;;;12.10;10.00;;;;;;;0.42;100.00;95044.31;5090317;28;24462;-72
2021/12/06 00:47:59;;;;;;;13.63;11.38;;;;;;;0.50;100.00;95040.66;5090535;28;24442;-71
2021/12/06 00:50:29;;;;;;;11.82;10.50;;;;;;;0.45;100.00;95048.47;5090659;28;24422;-72
2021/12/06 00:52:56;;;;;;;10.98;9.55;;;;;;;0.21;100.00;95047.56;5090727;28;24418;-73
2021/12/06 00:55:23;;;;;;;10.10;8.35;;;;;;;0.14;100.00;95046.94;5090298;28;24419;-72
2021/12/06 00:57:52;;;;;;;11.73;8.10;;;;;;;0.06;100.00;95056.56;5090554;28;24414;-70
2021/12/06 01:00:23;;;;;;;9.02;8.13;;;;;;;0.18;100.00;95051.06;5090354;28;24495;-72
2021/12/06 01:02:50;;;;;;;11.27;7.83;;;;;;;0.11;100.00;95051.31;5090561;28;24430;-71
2021/12/06 01:05:18;;;;;;;10.52;7.38;;;;;;;0.11;100.00;95064.03;5090348;28;24422;-72
2021/12/06 01:07:44;;;;;;;10.20;8.50;;;;;;;0.14;100.00;95067.31;5090152;28;25009;-72
2021/12/06 01:10:11;;;;;;;13.27;8.80;;;;;;;0.11;100.00;95069.13;5090327;28;24425;-73
2021/12/06 01:12:38;;;;;;;9.40;8.35;;;;;;;0.10;100.00;95075.94;5090564;28;24433;-72
2021/12/06 01:15:05;;;;;;;8.35;7.50;;;;;;;0.11;100.00;95085.28;5089812;28;24784;-72
2021/12/06 01:17:32;;;;;;;15.27;9.45;;;;;;;0.08;100.00;95082.81;5090549;28;24417;-72
2021/12/06 01:19:58;;;;;;;11.23;9.77;;;;;;;0.03;100.00;95087.22;5090339;28;24495;-71
2021/12/06 01:22:31;;;;;;;12.65;9.65;;;;;;;0.07;100.00;95093.88;5090377;28;24796;-72
2021/12/06 01:25:02;;;;;;;10.27;8.75;;;;;;;0.11;100.00;95089.50;5090230;28;24425;-69
2021/12/06 01:27:45;;;;;;;12.00;9.43;;;;;;;0.13;100.00;95093.66;5093626;28;24518;-69
2021/12/06 01:30:31;;;;;;;11.83;9.67;;;;;;;0.15;100.00;95096.16;5094132;28;24503;-69
2021/12/06 01:33:30;;;;;;;11.57;9.45;;;;;;;0.15;100.00;95096.16;5094350;28;24424;-70
2021/12/06 01:41:26;;;;;;;8.95;8.05;;;;;;;-0.11;100.00;95097.88;5086528;28;24448;-70
2021/12/06 01:44:11;;;;;;;9.05;7.85;;;;;;;-0.05;100.00;95097.66;5093603;28;24429;-70
2021/12/06 01:46:39;;;;;;;10.95;8.23;;;;;;;0.02;100.00;95105.09;5093606;28;24483;-70
2021/12/06 01:49:07;;;;;;;9.18;7.05;;;;;;;0.05;100.00;95110.91;5093557;28;24898;-70
2021/12/06 01:51:35;;;;;;;10.20;7.82;;;;;;;0.11;100.00;95118.38;5093703;28;24418;-70
2021/12/06 01:54:04;;;;;;;8.65;7.75;;;;;;;0.19;100.00;95125.75;5093516;28;24986;-70
2021/12/06 01:56:30;;;;;;;12.23;8.37;;;;;;;0.20;100.00;95125.69;5093254;28;24966;-70
2021/12/06 01:58:57;;;;;;;12.25;8.77;;;;;;;0.07;100.00;95124.41;5093364;28;24425;-70
2021/12/06 02:01:24;;;;;;;10.32;8.57;;;;;;;0.00;100.00;95133.16;5093394;28;24986;-70
2021/12/06 02:03:51;;;;;;;10.00;7.82;;;;;;;-0.11;100.00;95135.19;5093594;28;24418;-70
2021/12/06 02:06:17;;;;;;;13.80;9.45;;;;;;;-0.22;100.00;95135.53;5093223;28;24426;-70
2021/12/06 02:08:44;;;;;;;13.47;9.03;;;;;;;-0.37;100.00;95141.06;5093322;28;24449;-70
2021/12/06 02:11:12;;;;;;;11.48;8.05;;;;;;;-0.39;100.00;95136.03;5093249;28;24425;-70
2021/12/06 02:13:45;;;;;;;11.27;8.30;;;;;;;-0.38;100.00;95140.25;5093401;28;24514;-70
2021/12/06 02:16:12;;;;;;;10.75;8.05;;;;;;;-0.23;100.00;95141.50;5093125;28;24453;-70
2021/12/06 02:18:44;;;;;;;12.15;6.82;;;;;;;-0.13;100.00;95144.59;5093268;28;24414;-70
2021/12/06 02:21:19;;;;;;;7.60;6.45;;;;;;;-0.05;100.00;95142.63;5093139;28;24461;-70
2021/12/06 02:23:46;;;;;;;7.82;6.68;;;;;;;0.02;100.00;95145.81;5093016;28;24512;-71
2021/12/06 02:26:13;;;;;;;9.45;6.65;;;;;;;0.07;100.00;95146.50;5092661;28;24429;-71
2021/12/06 02:28:39;;;;;;;8.30;6.20;;;;;;;0.25;100.00;95151.00;5093015;28;24438;-73
2021/12/06 02:31:06;;;;;;;10.50;7.05;;;;;;;0.31;100.00;95150.00;5092962;28;24425;-73
2021/12/06 02:33:33;;;;;;;8.25;6.15;;;;;;;0.22;100.00;95151.09;5092958;28;24418;-72
2021/12/06 02:35:59;;;;;;;7.97;6.23;;;;;;;0.16;100.00;95158.94;5092717;28;24421;-73
2021/12/06 02:38:27;;;;;;;7.35;5.70;;;;;;;0.15;100.00;95155.59;5092394;28;24425;-73
2021/12/06 02:40:54;;;;;;;7.10;6.00;;;;;;;0.18;100.00;95152.09;5092927;28;24429;-71
2021/12/06 02:43:20;;;;;;;7.53;5.97;;;;;;;0.26;100.00;95154.38;5092532;28;24955;-71
2021/12/06 02:45:47;;;;;;;7.07;5.80;;;;;;;0.26;100.00;95151.84;5092381;28;24421;-71
2021/12/06 02:48:14;;;;;;;6.57;5.45;;;;;;;0.27;100.00;95151.81;5092487;28;24449;-71
2021/12/06 02:50:45;;;;;;;6.40;5.75;;;;;;;0.25;100.00;95151.00;5092599;28;24826;-71
2021/12/06 02:53:13;;;;;;;7.28;5.43;;;;;;;0.29;100.00;95159.38;5092425;28;24424;-71
2021/12/06 02:55:42;;;;;;;7.28;5.78;;;;;;;0.26;100.00;95160.34;5092275;28;24437;-71
2021/12/06 02:58:32;;;;;;;7.22;5.78;;;;;;;0.34;100.00;95160.09;5099808;22;24517;-72
2021/12/06 03:00:58;;;;;;;8.65;6.00;;;;;;;0.35;100.00;95161.75;5052226;28;24422;-73
2021/12/06 03:03:25;;;;;;;7.43;6.30;;;;;;;0.24;100.00;95160.38;5052005;28;24510;-73
2021/12/06 03:05:52;;;;;;;7.22;6.03;;;;;;;0.20;100.00;95163.06;5051617;28;24477;-71
2021/12/06 03:08:34;;;;;;;7.30;5.65;;;;;;;0.22;100.00;95163.84;5052062;28;24568;-73
2021/12/06 03:11:02;;;;;;;6.90;6.07;;;;;;;0.22;100.00;95167.25;5052069;28;24423;-73
2021/12/06 03:13:29;;;;;;;7.70;6.65;;;;;;;0.11;100.00;95166.75;5051950;28;24811;-73
2021/12/06 03:15:55;;;;;;;11.33;7.67;;;;;;;-0.06;100.00;95172.34;5051509;28;24485;-73
2021/12/06 03:18:22;;;;;;;12.80;8.93;;;;;;;-0.07;100.00;95173.25;5051630;28;24423;-73
2021/12/06 03:20:48;;;;;;;18.45;8.20;;;;;;;-0.08;100.00;95180.91;5051736;28;24419;-73
2021/12/06 03:23:15;;;;;;;8.35;7.45;;;;;;;-0.02;100.00;95184.09;5051816;28;24419;-73
2021/12/06 03:25:44;;;;;;;9.07;8.18;;;;;;;0.12;100.00;95186.22;5051338;28;24426;-73
2021/12/06 03:28:11;;;;;;;9.35;7.38;;;;;;;0.16;100.00;95177.59;5051386;28;24469;-73
2021/12/06 03:30:39;;;;;;;14.07;6.53;;;;;;;0.19;100.00;95195.34;5051348;28;24944;-72
2021/12/06 03:33:05;;;;;;;7.57;6.65;;;;;;;0.20;100.00;95199.53;5051717;28;24468;-73
2021/12/06 03:35:32;;;;;;;53.20;6.53;;;;;;;0.10;100.00;95204.97;5051245;28;24872;-71
2021/12/06 03:37:59;;;;;;;35.33;6.25;;;;;;;0.02;100.00;95205.22;5051415;28;24426;-73
2021/12/06 03:40:25;;;;;;;23.63;5.45;;;;;;;0.05;100.00;95200.03;5051865;28;24419;-73
2021/12/06 03:42:53;;;;;;;22.92;5.50;;;;;;;0.07;100.00;95202.50;5051221;28;24469;-73
2021/12/06 03:45:20;;;;;;;6.05;4.55;;;;;;;0.12;100.00;95200.69;5050891;28;24437;-73
2021/12/06 03:47:47;;;;;;;4.55;4.13;;;;;;;0.19;100.00;95199.59;5051223;28;24415;-73
2021/12/06 03:50:13;;;;;;;5.28;4.80;;;;;;;0.22;100.00;95205.44;5050482;28;24447;-73
2021/12/06 03:52:40;;;;;;;18.58;5.70;;;;;;;0.19;100.00;95209.78;5051087;28;24978;-73
2021/12/06 03:55:09;;;;;;;5.25;4.75;;;;;;;0.20;100.00;95206.34;5050768;28;24425;-71
2021/12/06 03:57:36;;;;;;;13.00;4.80;;;;;;;0.17;100.00;95211.53;5050662;28;24956;-73
2021/12/06 04:00:04;;;;;;;6.35;5.13;;;;;;;0.23;100.00;95219.81;5050842;28;24928;-71
2021/12/06 04:02:33;;;;;;;14.65;5.57;;;;;;;0.21;100.00;95220.75;5051098;28;24473;-71
2021/12/06 04:04:59;;;;;;;20.23;5.07;;;;;;;0.16;100.00;95218.34;5050723;28;24419;-71
2021/12/06 04:07:26;;;;;;;20.20;5.43;;;;;;;0.12;100.00;95221.03;5050866;28;24481;-71
2021/12/06 04:09:52;;;;;;;16.48;4.97;;;;;;;0.09;100.00;95228.78;5050746;28;24809;-71
2021/12/06 04:12:19;;;;;;;12.02;4.55;;;;;;;0.12;100.00;95237.16;5050637;28;24948;-71
2021/12/06 04:14:47;;;;;;;5.45;4.80;;;;;;;0.12;100.00;95231.22;5050909;28;24422;-71
2021/12/06 04:17:14;;;;;;;5.63;4.43;;;;;;;0.11;100.00;95230.41;5050503;28;24518;-71
2021/12/06 04:19:42;;;;;;;5.20;4.32;;;;;;;0.14;100.00;95234.56;5050708;28;24415;-71
2021/12/06 04:22:08;;;;;;;3.70;3.30;;;;;;;0.18;100.00;95236.13;5050575;28;24963;-71
2021/12/06 04:24:35;;;;;;;5.13;4.40;;;;;;;0.21;100.00;95248.75;5050483;28;24411;-71
2021/12/06 04:27:12;;;;;;;5.43;4.93;;;;;;;0.22;100.00;95250.41;5050416;28;24423;-71
2021/12/06 04:29:38;;;;;;;5.03;4.28;;;;;;;0.23;100.00;95245.28;5050604;28;24450;-71
2021/12/06 04:32:05;;;;;;;5.57;4.82;;;;;;;0.30;100.00;95250.19;5050611;28;24500;-71
2021/12/06 04:34:32;;;;;;;5.20;4.70;;;;;;;0.32;100.00;95254.34;5050465;28;24411;-71
2021/12/06 04:37:00;;;;;;;5.65;4.80;;;;;;;0.31;100.00;95257.78;5050612;28;24419;-71
2021/12/06 04:39:28;;;;;;;6.88;5.75;;;;;;;0.26;100.00;95258.81;5050247;28;24415;-71
2021/12/06 04:41:54;;;;;;;6.78;5.95;;;;;;;0.25;100.00;95265.59;5050453;28;24530;-71
2021/12/06 04:44:21;;;;;;;9.38;5.80;;;;;;;0.22;100.00;95260.59;5050491;28;24481;-71
2021/12/06 04:46:48;;;;;;;38.45;18.63;;;;;;;0.17;100.00;95268.38;5049894;28;24812;-71
2021/12/06 04:49:15;;;;;;;21.92;14.10;;;;;;;0.21;100.00;95271.69;5050298;28;25045;-71
2021/12/06 04:51:45;;;;;;;18.13;10.27;;;;;;;0.25;100.00;95270.72;5050214;28;24415;-71
2021/12/06 04:54:15;;;;;;;12.95;8.52;;;;;;;0.26;100.00;95272.41;5050172;28;25031;-71
2021/12/06 04:56:49;;;;;;;10.23;7.85;;;;;;;0.24;100.00;95276.69;5049797;28;25006;-72
2021/12/06 04:59:20;;;;;;;8.60;7.32;;;;;;;0.22;100.00;95279.28;5050298;28;24419;-71
2021/12/06 05:01:50;;;;;;;18.80;9.50;;;;;;;0.09;100.00;95287.34;5054308;28;24426;-71
2021/12/06 05:04:20;;;;;;;42.05;25.63;;;;;;;0.00;100.00;95291.00;5054073;28;24422;-71
2021/12/06 05:06:50;;;;;;;34.13;17.52;;;;;;;0.06;100.00;95298.44;5054106;28;24830;-71
2021/12/06 05:09:21;;;;;;;13.02;10.13;;;;;;;0.18;100.00;95309.97;5054070;28;24996;-71
2021/12/06 05:11:47;;;;;;;7.93;7.13;;;;;;;0.23;100.00;95303.88;5054224;28;24419;-71
2021/12/06 05:14:15;;;;;;;7.55;6.80;;;;;;;0.28;100.00;95308.00;5054137;28;24419;-71
2021/12/06 05:16:42;;;;;;;8.13;6.80;;;;;;;0.31;100.00;95311.28;5053664;28;24951;-71
2021/12/06 05:19:08;;;;;;;9.18;6.38;;;;;;;0.30;100.00;95306.22;5053890;28;24466;-71
2021/12/06 05:21:36;;;;;;;11.98;6.55;;;;;;;0.43;100.00;95310.91;5054183;28;24515;-71
2021/12/06 05:24:04;;;;;;;8.73;7.17;;;;;;;0.55;100.00;95324.97;5053897;28;24545;-70
2021/12/06 05:26:32;;;;;;;9.57;7.40;;;;;;;0.57;100.00;95328.31;5053929;28;24422;-70
2021/12/06 05:29:00;;;;;;;8.37;6.60;;;;;;;0.39;100.00;95328.88;5053739;28;24415;-70
2021/12/06 05:31:29;;;;;;;9.88;7.13;;;;;;;0.18;100.00;95333.72;5053593;28;24441;-70
2021/12/06 05:34:01;;;;;;;44.20;29.65;;;;;;;0.18;100.00;95345.63;5053663;28;24540;-70
2021/12/06 05:36:28;;;;;;;58.15;39.38;;;;;;;0.03;100.00;95344.34;5053449;28;24801;-72
2021/12/06 05:38:57;;;;;;;27.48;20.65;;;;;;;0.03;100.00;95356.25;5053550;28;24971;-72
2021/12/06 05:41:24;;;;;;;18.00;13.25;;;;;;;0.06;100.00;95351.91;5053700;28;24473;-72
2021/12/06 05:43:52;;;;;;;12.43;10.43;;;;;;;0.13;100.00;95355.13;5053510;28;24465;-72
2021/12/06 05:46:19;;;;;;;9.23;6.90;;;;;;;0.10;100.00;95357.75;5053371;28;24473;-71
2021/12/06 05:48:46;;;;;;;7.68;6.80;;;;;;;0.17;100.00;95356.69;5053551;28;24999;-71
2021/12/06 05:51:12;;;;;;;7.82;6.55;;;;;;;0.22;100.00;95359.94;5053896;28;24419;-72
2021/12/06 05:53:39;;;;;;;6.55;5.95;;;;;;;0.26;100.00;95365.78;5053340;28;24999;-71
2021/12/06 05:56:06;;;;;;;8.02;5.63;;;;;;;0.24;100.00;95365.81;5053204;28;24828;-71
2021/12/06 05:58:34;;;;;;;18.45;11.13;;;;;;;0.14;100.00;95375.44;5053071;28;24454;-71
2021/12/06 06:01:03;;;;;;;11.57;10.18;;;;;;;-0.02;100.00;95376.75;5053571;28;24511;-71
2021/12/06 06:03:30;;;;;;;13.57;8.38;;;;;;;-0.11;100.00;95375.31;5053421;28;24422;-71
2021/12/06 06:05:56;;;;;;;8.73;7.90;;;;;;;-0.09;100.00;95383.72;5052924;28;24415;-71
2021/12/06 06:08:23;;;;;;;8.68;6.40;;;;;;;-0.08;100.00;95385.38;5053085;28;24481;-71
2021/12/06 06:10:51;;;;;;;11.35;8.40;;;;;;;-0.13;100.00;95379.59;5052916;28;24805;-71
2021/12/06 06:13:19;;;;;;;8.85;7.60;;;;;;;-0.05;100.00;95387.00;5052314;28;24964;-71
2021/12/06 06:15:46;;;;;;;7.25;6.55;;;;;;;0.02;100.00;95396.16;5052739;28;25014;-71
2021/12/06 06:18:14;;;;;;;13.40;8.05;;;;;;;0.08;100.00;95388.34;5052972;28;24423;-71
2021/12/06 06:20:46;;;;;;;9.63;8.55;;;;;;;0.17;100.00;95402.53;5052984;28;24434;-71
2021/12/06 06:23:12;;;;;;;8.95;7.45;;;;;;;0.19;100.00;95396.53;5052814;28;24407;-72
2021/12/06 06:25:39;;;;;;;6.85;6.03;;;;;;;0.23;100.00;95408.28;5052544;28;24415;-72
2021/12/06 06:28:06;;;;;;;6.32;5.72;;;;;;;0.24;100.00;95409.94;5052972;28;24473;-72
2021/12/06 06:30:34;;;;;;;6.38;5.78;;;;;;;0.22;100.00;95409.19;5052873;28;24492;-71
2021/12/06 06:33:01;;;;;;;8.10;7.03;;;;;;;0.13;100.00;95411.13;5052903;28;24486;-71
2021/12/06 06:35:30;;;;;;;12.25;9.70;;;;;;;0.14;100.00;95422.97;5052343;28;24415;-71
2021/12/06 06:37:57;;;;;;;14.50;10.82;;;;;;;0.08;100.00;95426.56;5052493;28;24426;-71
2021/12/06 06:40:24;;;;;;;13.80;10.20;;;;;;;0.19;100.00;95437.28;5052890;28;24487;-71
2021/12/06 06:42:50;;;;;;;9.30;8.13;;;;;;;0.22;100.00;95439.75;5052652;28;24434;-71
2021/12/06 06:45:19;;;;;;;9.27;7.88;;;;;;;0.25;100.00;95451.53;5052149;28;25026;-71
2021/12/06 06:47:46;;;;;;;9.73;8.17;;;;;;;0.37;100.00;95450.34;5052316;28;24822;-71
2021/12/06 06:50:13;;;;;;;9.32;7.95;;;;;;;0.61;100.00;95446.28;5052321;28;24446;-71
2021/12/06 06:52:41;;;;;;;9.40;7.10;;;;;;;0.65;100.00;95453.78;5052210;28;24473;-71
2021/12/06 06:55:10;;;;;;;7.22;6.28;;;;;;;0.68;100.00;95455.44;5052017;28;24434;-71
2021/12/06 06:57:37;;;;;;;5.67;5.07;;;;;;;0.75;100.00;95467.13;5052095;28;24522;-71
2021/12/06 07:00:07;;;;;;;6.37;5.60;;;;;;;0.71;100.00;95468.09;5052183;28;24423;-71
2021/12/06 07:02:33;;;;;;;6.13;4.90;;;;;;;0.60;100.00;95477.75;5051943;28;24454;-71
2021/12/06 07:04:59;;;;;;;10.02;5.63;;;;;;;0.52;100.00;95474.56;5051487;28;24414;-72
2021/12/06 07:07:26;;;;;;;6.93;5.10;;;;;;;0.45;100.00;95481.56;5051829;28;24524;-73
2021/12/06 07:09:54;;;;;;;6.03;5.40;;;;;;;0.46;100.00;95480.69;5051728;28;24903;-71
2021/12/06 07:12:20;;;;;;;7.68;6.13;;;;;;;0.41;100.00;95485.91;5051600;28;24426;-72
2021/12/06 07:14:48;;;;;;;6.05;5.43;;;;;;;0.44;100.00;95483.25;5051535;28;24820;-73
2021/12/06 07:17:16;;;;;;;7.45;5.82;;;;;;;0.46;100.00;95480.69;5051022;28;24422;-71
2021/12/06 07:19:43;;;;;;;5.88;5.32;;;;;;;0.52;100.00;95489.84;5051308;28;24615;-71
2021/12/06 07:22:10;;;;;;;5.90;5.35;;;;;;;0.57;100.00;95491.41;5051696;28;24828;-71
2021/12/06 07:24:36;;;;;;;6.85;6.13;;;;;;;0.60;100.00;95500.69;5050743;28;24419;-72
2021/12/06 07:27:05;;;;;;;7.28;6.00;;;;;;;0.63;100.00;95505.69;5051483;28;24835;-69
2021/12/06 07:29:33;;;;;;;8.15;5.63;;;;;;;0.62;100.00;95507.41;5047367;28;24793;-70
2021/12/06 07:32:01;;;;;;;7.40;6.28;;;;;;;0.63;100.00;95506.53;5055079;28;24976;-69
2021/12/06 07:34:27;;;;;;;9.68;7.55;;;;;;;0.58;100.00;95521.09;5050637;28;25010;-71
2021/12/06 07:36:54;;;;;;;7.65;6.95;;;;;;;0.62;100.00;95515.03;5051137;28;24427;-70
2021/12/06 07:39:21;;;;;;;12.27;9.40;;;;;;;0.64;100.00;95515.84;5051575;28;24419;-69
2021/12/06 07:41:47;;;;;;;12.80;9.43;;;;;;;0.63;100.00;95515.88;5051325;28;24426;-71
2021/12/06 07:44:15;;;;;;;13.40;12.00;;;;;;;0.68;100.00;95519.97;5051266;28;24948;-71
2021/12/06 07:46:41;;;;;;;54.00;35.25;;;;;;;0.70;100.00;95518.22;5050635;28;24831;-72
2021/12/06 07:49:08;;;;;;;45.25;33.05;;;;;;;0.73;100.00;95527.47;5051008;28;24789;-70
2021/12/06 07:51:34;;;;;;;24.92;17.05;;;;;;;0.74;100.00;95524.03;5051157;28;24470;-70
2021/12/06 07:54:02;;;;;;;10.20;9.13;;;;;;;0.78;100.00;95528.22;5051227;28;24423;-71
2021/12/06 07:56:28;;;;;;;8.27;7.47;;;;;;;0.76;100.00;95529.13;5030703;28;24516;-73
2021/12/06 07:58:55;;;;;;;8.43;7.50;;;;;;;0.79;100.00;95529.03;5043448;28;24435;-73
2021/12/06 08:01:23;;;;;;;9.87;7.93;;;;;;;0.75;100.00;95530.84;5050691;28;24601;-71
2021/12/06 08:03:49;;;;;;;15.02;9.88;;;;;;;0.79;100.00;95527.31;5050919;28;24947;-71
2021/12/06 08:06:16;;;;;;;11.93;9.55;;;;;;;0.83;100.00;95523.81;5050634;28;24419;-71
2021/12/06 08:08:44;;;;;;;11.48;9.63;;;;;;;0.87;100.00;95527.09;5050915;28;24426;-71
2021/12/06 08:11:14;;;;;;;13.20;10.63;;;;;;;0.87;100.00;95533.03;5050756;28;24497;-71
2021/12/06 08:13:44;;;;;;;13.33;9.23;;;;;;;0.93;100.00;95539.69;5050773;28;24512;-71
2021/12/06 08:16:19;;;;;;;10.05;7.72;;;;;;;1.05;100.00;95541.03;5050216;28;24457;-71
2021/12/06 08:18:47;;;;;;;8.07;6.40;;;;;;;1.19;100.00;95547.41;5050734;28;24480;-74
2021/12/06 08:21:15;;;;;;;9.95;5.65;;;;;;;1.25;100.00;95546.38;5050660;28;24422;-73
2021/12/06 08:23:42;;;;;;;6.60;5.72;;;;;;;1.20;100.00;95541.41;5050710;28;24422;-71
2021/12/06 08:26:11;;;;;;;6.90;5.70;;;;;;;1.13;100.00;95550.13;5050247;28;24422;-71
2021/12/06 08:28:39;;;;;;;8.10;6.10;;;;;;;1.05;100.00;95556.34;5049675;28;24987;-70
2021/12/06 08:31:07;;;;;;;6.63;5.77;;;;;;;1.01;100.00;95559.84;5050287;28;25018;-71
2021/12/06 08:33:34;;;;;;;7.60;6.28;;;;;;;0.99;100.00;95564.16;5050641;28;24419;-71
2021/12/06 08:36:04;;;;;;;7.65;6.32;;;;;;;0.91;100.00;95567.75;5049780;28;24420;-71
2021/12/06 08:38:33;;;;;;;7.18;6.47;;;;;;;0.88;100.00;95560.19;5050357;28;24455;-69
2021/12/06 08:41:02;;;;;;;7.45;6.65;;;;;;;0.92;100.00;95563.50;5050194;28;24415;-71
2021/12/06 08:43:29;;;;;;;7.45;6.60;;;;;;;0.95;100.00;95569.34;5051170;28;24415;-72
2021/12/06 08:45:59;;;;;;;6.95;6.22;;;;;;;1.00;100.00;95568.38;5049415;28;24419;-71
2021/12/06 08:48:29;;;;;;;10.63;9.52;;;;;;;1.05;100.00;95571.63;5050192;28;24473;-71
2021/12/06 08:50:58;;;;;;;30.13;25.15;;;;;;;1.10;100.00;95569.78;5070191;28;24466;-71
2021/12/06 08:53:26;;;;;;;39.85;26.60;;;;;;;1.19;100.00;95577.19;5070024;28;25116;-71
2021/12/06 08:55:54;;;;;;;18.15;15.35;;;;;;;1.17;100.00;95573.81;5070136;28;24421;-71
2021/12/06 08:58:21;;;;;;;16.35;13.80;;;;;;;1.16;100.00;95574.72;5051339;22;25042;-72
2021/12/06 09:00:48;;;;;;;16.60;12.93;;;;;;;1.17;100.00;95573.81;5030376;28;24542;-72
2021/12/06 09:03:15;;;;;;;22.45;16.27;;;;;;;1.19;100.00;95584.84;5030263;28;24416;-73
2021/12/06 09:05:45;;;;;;;18.33;13.68;;;;;;;1.26;100.00;95577.81;5029914;28;24431;-72
2021/12/06 09:08:12;;;;;;;15.73;12.23;;;;;;;1.35;100.00;95578.38;5029825;28;24423;-73
2021/12/06 09:10:40;;;;;;;14.05;10.25;;;;;;;1.44;100.00;95583.19;5029943;28;24992;-73
2021/12/06 09:13:07;;;;;;;14.43;10.98;;;;;;;1.48;100.00;95591.59;5030381;28;24423;-73
2021/12/06 09:15:34;;;;;;;10.47;9.17;;;;;;;1.54;100.00;95588.88;5029815;28;24474;-71
2021/12/06 09:18:01;;;;;;;12.65;9.48;;;;;;;1.54;100.00;95585.50;5029922;28;25015;-72
2021/12/06 09:20:30;;;;;;;15.25;9.18;;;;;;;1.48;100.00;95583.94;5029809;28;24984;-73
2021/12/06 09:22:57;;;;;;;9.93;7.87;;;;;;;1.56;100.00;95586.25;5030051;28;24427;-73
2021/12/06 09:25:23;;;;;;;9.65;7.68;;;;;;;1.72;100.00;95596.88;5029608;28;24420;-73
2021/12/06 09:27:51;;;;;;;10.82;7.55;;;;;;;1.73;100.00;95595.97;5029426;28;25015;-72
2021/12/06 09:30:21;;;;;;;8.02;7.22;;;;;;;1.76;100.00;95591.59;5029748;28;25050;-73
2021/12/06 09:32:48;;;;;;;9.30;6.75;;;;;;;1.90;100.00;95603.94;5029865;28;24430;-73
2021/12/06 09:35:20;;;;;;;7.05;6.18;;;;;;;1.71;100.00;95606.25;5029351;28;24420;-73
2021/12/06 09:37:47;;;;;;;8.15;7.00;;;;;;;1.82;100.00;95606.75;5030152;28;24434;-73
2021/12/06 09:40:15;;;;;;;6.57;5.95;;;;;;;1.71;100.00;95606.25;5030014;28;24431;-73
2021/12/06 09:42:43;;;;;;;6.82;5.75;;;;;;;1.61;100.00;95602.28;5029697;28;24984;-73
2021/12/06 09:45:13;;;;;;;6.85;6.15;;;;;;;1.65;100.00;95606.41;5029938;28;24482;-73
2021/12/06 09:47:39;;;;;;;6.45;5.85;;;;;;;1.60;100.00;95598.91;5031465;28;24829;-73
2021/12/06 09:50:08;;;;;;;5.65;4.80;;;;;;;1.55;100.00;95612.69;5033507;28;24415;-74
2021/12/06 09:52:34;;;;;;;5.63;5.07;;;;;;;1.47;100.00;95605.25;5033615;28;24420;-73
2021/12/06 09:55:01;;;;;;;6.15;5.03;;;;;;;1.44;100.00;95608.72;5033135;28;24443;-72
2021/12/06 09:57:28;;;;;;;6.78;5.38;;;;;;;1.45;100.00;95609.59;5032825;28;24434;-74
2021/12/06 09:59:54;;;;;;;6.55;5.22;;;;;;;1.47;100.00;95610.34;5033227;28;24454;-73
2021/12/06 10:02:23;;;;;;;7.25;5.70;;;;;;;1.50;100.00;95602.63;5032978;28;24416;-73
2021/12/06 10:04:54;;;;;;;8.80;7.18;;;;;;;1.52;100.00;95611.06;5033037;28;24415;-72
2021/12/06 10:07:23;;;;;;;9.95;7.88;;;;;;;1.56;100.00;95599.88;5032827;28;24435;-72
2021/12/06 10:09:51;;;;;;;16.83;11.65;;;;;;;1.51;100.00;95599.16;5032926;28;24427;-72
2021/12/06 10:12:19;;;;;;;11.32;10.02;;;;;;;1.49;100.00;95597.56;5032980;28;24440;-71
2021/12/06 10:14:45;;;;;;;10.70;8.90;;;;;;;1.52;100.00;95590.66;5032696;28;25063;-72
2021/12/06 10:17:15;;;;;;;10.25;8.23;;;;;;;1.44;100.00;95593.41;5032939;28;24427;-70
2021/12/06 10:19:43;;;;;;;9.23;8.07;;;;;;;1.45;100.00;95594.28;5032931;28;24447;-73
2021/12/06 10:22:10;;;;;;;11.70;8.73;;;;;;;1.44;100.00;95595.97;5032718;28;24470;-70
2021/12/06 10:24:36;;;;;;;13.30;8.53;;;;;;;1.52;100.00;95589.78;5032882;28;24632;-70
2021/12/06 10:27:06;;;;;;;8.30;7.45;;;;;;;1.58;100.00;95594.72;5032454;28;24427;-71
2021/12/06 10:29:38;;;;;;;10.00;8.32;;;;;;;1.52;100.00;95593.22;5032280;28;25071;-71
2021/12/06 10:32:12;;;;;;;8.63;7.82;;;;;;;1.44;100.00;95587.47;5032493;28;24882;-71
2021/12/06 10:34:46;;;;;;;9.02;8.13;;;;;;;1.48;100.00;95591.59;5032633;28;24542;-71
2021/12/06 10:37:28;;;;;;;9.52;8.27;;;;;;;1.60;100.00;95590.41;5032358;28;24555;-71
2021/12/06 10:39:55;;;;;;;12.55;8.35;;;;;;;1.66;100.00;95585.94;5032900;28;24466;-71
2021/12/06 10:42:28;;;;;;;10.95;7.63;;;;;;;1.60;100.00;95591.25;5032380;28;24829;-73
2021/12/06 10:44:55;;;;;;;10.18;8.23;;;;;;;1.64;100.00;95594.53;5032477;28;24427;-73
2021/12/06 10:47:21;;;;;;;10.93;7.93;;;;;;;1.51;100.00;95581.31;5032292;28;24423;-73
2021/12/06 10:49:49;;;;;;;7.95;7.15;;;;;;;1.62;100.00;95581.81;5032405;28;24408;-73
2021/12/06 10:52:25;;;;;;;8.52;6.30;;;;;;;1.82;100.00;95577.81;5032027;28;24471;-73
2021/12/06 10:54:52;;;;;;;6.95;5.93;;;;;;;1.92;100.00;95574.06;5032240;28;24494;-73
2021/12/06 10:57:20;;;;;;;8.40;6.00;;;;;;;2.08;100.00;95571.88;5031883;28;24489;-71
2021/12/06 10:59:46;;;;;;;8.02;6.30;;;;;;;2.33;100.00;95561.66;5051815;28;24423;-73
2021/12/06 11:02:14;;;;;;;5.68;5.03;;;;;;;2.66;100.00;95559.66;5052017;28;24431;-72
2021/12/06 11:04:42;;;;;;;4.90;4.45;;;;;;;2.82;100.00;95557.41;5051855;28;24465;-71
2021/12/06 11:07:11;;;;;;;5.47;4.40;;;;;;;2.81;100.00;95553.16;5051723;28;24423;-71
2021/12/06 11:09:41;;;;;;;6.10;4.43;;;;;;;3.02;100.00;95562.63;5051943;28;24426;-72
2021/12/06 11:12:09;;;;;;;6.68;4.45;;;;;;;3.10;100.00;95552.13;5051883;28;24994;-72
2021/12/06 11:14:38;;;;;;;5.10;4.00;;;;;;;3.25;100.00;95543.03;5051650;28;24473;-70
2021/12/06 11:17:08;;;;;;;4.70;3.80;;;;;;;3.42;100.00;95545.78;5051289;28;24785;-71
2021/12/06 11:19:35;;;;;;;3.92;3.53;;;;;;;3.29;100.00;95547.97;5051778;28;24407;-70
2021/12/06 11:22:05;;;;;;;5.80;3.85;;;;;;;3.26;100.00;95548.06;5051705;28;24418;-71
2021/12/06 11:24:39;;;;;;;4.28;3.30;;;;;;;3.41;100.00;95544.09;5051775;28;24979;-71
2021/12/06 11:27:08;;;;;;;3.85;3.45;;;;;;;3.54;100.00;95553.00;5051334;28;24538;-71
2021/12/06 11:29:37;;;;;;;4.30;3.33;;;;;;;3.43;100.00;95547.44;5033301;28;24865;-72
2021/12/06 11:32:07;;;;;;;4.70;3.17;;;;;;;3.44;100.00;95546.56;5031128;28;24510;-71
2021/12/06 11:34:39;;;;;;;3.75;3.00;;;;;;;3.38;100.00;95554.47;5031566;28;24470;-71
2021/12/06 11:37:13;;;;;;;3.08;2.58;;;;;;;3.17;100.00;95561.22;5031321;28;24442;-71
2021/12/06 11:39:40;;;;;;;3.88;3.17;;;;;;;3.28;100.00;95555.72;5031438;28;24506;-70